createdAt,value
2022-11-29T00:00:52.118Z,981.64
2022-11-29T00:01:52.273Z,981.65
2022-11-29T00:02:52.218Z,981.70
2022-11-29T00:03:52.097Z,981.68
2022-11-29T00:04:52.088Z,981.63
2022-11-29T00:05:52.057Z,981.63
2022-11-29T00:06:52.049Z,981.61
2022-11-29T00:07:52.098Z,981.66
2022-11-29T00:08:52.030Z,981.68
2022-11-29T00:09:52.029Z,981.64
2022-11-29T00:10:52.009Z,981.68
2022-11-29T00:11:51.998Z,981.67
2022-11-29T00:12:51.989Z,981.62
2022-11-29T00:13:51.981Z,981.66
2022-11-29T00:14:51.989Z,981.64
2022-11-29T00:15:51.950Z,981.64
2022-11-29T00:16:52.027Z,981.61
2022-11-29T00:17:51.930Z,981.60
2022-11-29T00:18:51.921Z,981.56
2022-11-29T00:19:51.960Z,981.62
2022-11-29T00:20:51.920Z,981.61
2022-11-29T00:21:51.888Z,981.58
2022-11-29T00:22:51.897Z,981.64
2022-11-29T00:23:51.870Z,981.60
2022-11-29T00:24:51.860Z,981.57
2022-11-29T00:25:51.842Z,981.57
2022-11-29T00:26:51.840Z,981.59
2022-11-29T00:27:51.830Z,981.58
2022-11-29T00:28:51.824Z,981.57
2022-11-29T00:29:51.806Z,981.59
2022-11-29T00:30:51.823Z,981.57
2022-11-29T00:31:51.802Z,981.62
2022-11-29T00:32:51.772Z,981.61
2022-11-29T00:33:51.763Z,981.61
2022-11-29T00:34:51.771Z,981.62
2022-11-29T00:35:51.741Z,981.62
2022-11-29T00:36:51.732Z,981.57
2022-11-29T00:37:51.721Z,981.62
2022-11-29T00:38:51.733Z,981.61
2022-11-29T00:39:51.719Z,981.55
2022-11-29T00:40:51.689Z,981.60
2022-11-29T00:41:51.672Z,981.59
2022-11-29T00:42:51.672Z,981.55
2022-11-29T00:43:51.662Z,981.56
2022-11-29T00:44:51.663Z,981.59
2022-11-29T00:45:51.692Z,981.60
2022-11-29T00:46:51.623Z,981.59
2022-11-29T00:47:51.613Z,981.65
2022-11-29T00:48:51.625Z,981.61
2022-11-29T00:49:51.593Z,981.67
2022-11-29T00:50:51.593Z,981.69
2022-11-29T00:51:51.586Z,981.65
2022-11-29T00:52:51.564Z,981.69
2022-11-29T00:53:51.545Z,981.66
2022-11-29T00:54:51.545Z,981.67
2022-11-29T00:55:51.534Z,981.63
2022-11-29T00:56:51.534Z,981.64
2022-11-29T00:57:51.514Z,981.63
2022-11-29T00:58:51.503Z,981.62
2022-11-29T00:59:51.485Z,981.64
2022-11-29T01:00:51.506Z,981.65
2022-11-29T01:01:51.485Z,981.70
2022-11-29T01:02:51.456Z,981.72
2022-11-29T01:03:51.446Z,981.67
2022-11-29T01:04:51.426Z,981.73
2022-11-29T01:05:51.425Z,981.76
2022-11-29T01:06:51.426Z,981.65
2022-11-29T01:07:51.471Z,981.68
2022-11-29T01:08:51.385Z,981.68
2022-11-29T01:09:51.376Z,981.67
2022-11-29T01:10:51.366Z,981.68
2022-11-29T01:11:51.377Z,981.63
2022-11-29T01:12:51.346Z,981.66
2022-11-29T01:13:51.338Z,981.66
2022-11-29T01:14:51.337Z,981.71
2022-11-29T01:15:51.317Z,981.65
2022-11-29T01:16:51.331Z,981.65
2022-11-29T01:17:51.307Z,981.68
2022-11-29T01:18:51.278Z,981.73
2022-11-29T01:19:51.315Z,981.66
2022-11-29T01:20:51.259Z,981.66
2022-11-29T01:21:51.259Z,981.74
2022-11-29T01:22:51.255Z,981.72
2022-11-29T01:23:51.236Z,981.71
2022-11-29T01:24:51.218Z,981.71
2022-11-29T01:25:51.210Z,981.78
2022-11-29T01:26:51.199Z,981.74
2022-11-29T01:27:51.189Z,981.77
2022-11-29T01:28:51.200Z,981.74
2022-11-29T01:29:51.170Z,981.72
2022-11-29T01:30:51.210Z,981.78
2022-11-29T01:31:51.159Z,981.74
2022-11-29T01:32:51.139Z,981.77
2022-11-29T01:33:51.127Z,981.76
2022-11-29T01:34:51.120Z,981.77
2022-11-29T01:35:51.110Z,981.83
2022-11-29T01:36:51.091Z,981.79
2022-11-29T01:37:51.080Z,981.76
2022-11-29T01:38:51.073Z,981.79
2022-11-29T01:39:51.093Z,981.78
2022-11-29T01:40:51.061Z,981.79
2022-11-29T01:41:51.051Z,981.82
2022-11-29T01:42:51.031Z,981.78
2022-11-29T01:43:51.021Z,981.74
2022-11-29T01:44:51.001Z,981.74
2022-11-29T01:45:51.070Z,981.78
2022-11-29T01:46:50.981Z,981.78
2022-11-29T01:47:50.992Z,981.77
2022-11-29T01:48:50.962Z,981.72
2022-11-29T01:49:50.961Z,981.73
2022-11-29T01:50:50.941Z,981.78
2022-11-29T01:51:50.953Z,981.73
2022-11-29T01:52:50.963Z,981.72
2022-11-29T01:53:50.913Z,981.72
2022-11-29T01:54:50.910Z,981.73
2022-11-29T01:55:50.936Z,981.69
2022-11-29T01:56:50.904Z,981.73
2022-11-29T01:57:50.865Z,981.69
2022-11-29T01:58:50.852Z,981.72
2022-11-29T01:59:50.864Z,981.70
2022-11-29T02:00:50.834Z,981.67
2022-11-29T02:01:50.844Z,981.71
2022-11-29T02:02:50.903Z,981.76
2022-11-29T02:03:50.805Z,981.70
2022-11-29T02:04:50.815Z,981.72
2022-11-29T02:05:50.791Z,981.72
2022-11-29T02:06:50.774Z,981.75
2022-11-29T02:07:50.807Z,981.71
2022-11-29T02:08:50.753Z,981.71
2022-11-29T02:09:50.745Z,981.71
2022-11-29T02:10:50.745Z,981.76
2022-11-29T02:11:50.726Z,981.70
2022-11-29T02:12:50.704Z,981.72
2022-11-29T02:13:50.712Z,981.69
2022-11-29T02:14:50.717Z,981.71
2022-11-29T02:15:50.741Z,981.72
2022-11-29T02:16:56.286Z,981.76
2022-11-29T02:17:51.662Z,981.76
2022-11-29T02:18:50.653Z,981.75
2022-11-29T02:19:50.657Z,981.72
2022-11-29T02:20:50.625Z,981.73
2022-11-29T02:21:50.615Z,981.78
2022-11-29T02:22:50.606Z,981.73
2022-11-29T02:23:50.596Z,981.78
2022-11-29T02:24:50.598Z,981.75
2022-11-29T02:25:50.587Z,981.72
2022-11-29T02:26:50.556Z,981.75
2022-11-29T02:27:50.557Z,981.80
2022-11-29T02:28:50.537Z,981.74
2022-11-29T02:29:50.557Z,981.77
2022-11-29T02:30:50.556Z,981.69
2022-11-29T02:31:50.496Z,981.74
2022-11-29T02:32:50.503Z,981.74
2022-11-29T02:33:50.474Z,981.78
2022-11-29T02:34:50.465Z,981.80
2022-11-29T02:35:50.474Z,981.81
2022-11-29T02:36:50.434Z,981.78
2022-11-29T02:37:50.432Z,981.77
2022-11-29T02:38:50.416Z,981.79
2022-11-29T02:39:50.425Z,981.82
2022-11-29T02:40:50.395Z,981.81
2022-11-29T02:41:50.405Z,981.84
2022-11-29T02:42:56.176Z,981.80
2022-11-29T02:43:51.366Z,981.79
2022-11-29T02:44:50.356Z,981.82
2022-11-29T02:45:50.396Z,981.80
2022-11-29T02:46:50.336Z,981.81
2022-11-29T02:47:50.327Z,981.82
2022-11-29T02:48:50.308Z,981.81
2022-11-29T02:49:50.306Z,981.79
2022-11-29T02:50:50.294Z,981.79
2022-11-29T02:51:50.284Z,981.81
2022-11-29T02:52:50.285Z,981.85
2022-11-29T02:53:50.266Z,981.88
2022-11-29T02:54:50.258Z,981.81
2022-11-29T02:55:50.237Z,981.87
2022-11-29T02:56:50.226Z,981.85
2022-11-29T02:57:50.236Z,981.79
2022-11-29T02:58:50.206Z,981.88
2022-11-29T02:59:50.198Z,981.82
2022-11-29T03:00:50.188Z,981.84
2022-11-29T03:01:50.234Z,981.83
2022-11-29T03:02:50.220Z,981.82
2022-11-29T03:03:50.157Z,981.83
2022-11-29T03:04:50.157Z,981.85
2022-11-29T03:05:50.138Z,981.86
2022-11-29T03:06:50.118Z,981.83
2022-11-29T03:07:50.153Z,981.87
2022-11-29T03:08:50.117Z,981.84
2022-11-29T03:09:50.088Z,981.86
2022-11-29T03:10:50.078Z,981.86
2022-11-29T03:11:50.069Z,981.91
2022-11-29T03:12:50.050Z,981.87
2022-11-29T03:13:50.079Z,981.89
2022-11-29T03:14:50.039Z,981.91
2022-11-29T03:15:50.071Z,981.98
2022-11-29T03:16:50.018Z,981.88
2022-11-29T03:17:50.009Z,981.95
2022-11-29T03:18:49.990Z,981.98
2022-11-29T03:19:50.021Z,981.98
2022-11-29T03:20:49.995Z,981.94
2022-11-29T03:21:49.970Z,981.98
2022-11-29T03:22:49.950Z,982.04
2022-11-29T03:23:49.940Z,982.04
2022-11-29T03:24:49.929Z,982.02
2022-11-29T03:25:49.950Z,982.07
2022-11-29T03:26:49.910Z,982.02
2022-11-29T03:27:49.901Z,982.03
2022-11-29T03:28:49.890Z,982.02
2022-11-29T03:29:49.881Z,982.05
2022-11-29T03:30:49.956Z,982.03
2022-11-29T03:31:49.871Z,982.06
2022-11-29T03:32:49.843Z,982.03
2022-11-29T03:33:49.851Z,982.02
2022-11-29T03:34:53.004Z,982.00
2022-11-29T03:35:50.813Z,982.05
2022-11-29T03:36:49.800Z,982.00
2022-11-29T03:37:49.793Z,982.04
2022-11-29T03:38:49.783Z,982.01
2022-11-29T03:39:49.792Z,981.99
2022-11-29T03:40:49.763Z,982.01
2022-11-29T03:41:49.754Z,982.05
2022-11-29T03:42:49.752Z,982.01
2022-11-29T03:43:49.785Z,982.05
2022-11-29T03:44:49.712Z,982.02
2022-11-29T03:45:49.713Z,981.99
2022-11-29T03:46:49.693Z,982.09
2022-11-29T03:47:49.684Z,982.04
2022-11-29T03:48:49.690Z,982.01
2022-11-29T03:49:49.683Z,982.10
2022-11-29T03:50:49.651Z,982.05
2022-11-29T03:51:49.644Z,982.08
2022-11-29T03:52:49.633Z,982.06
2022-11-29T03:53:49.626Z,982.09
2022-11-29T03:54:49.624Z,982.10
2022-11-29T03:55:49.604Z,982.08
2022-11-29T03:56:49.594Z,982.11
2022-11-29T03:57:49.583Z,982.10
2022-11-29T03:58:49.564Z,982.12
2022-11-29T03:59:49.575Z,982.09
2022-11-29T04:00:49.546Z,982.10
2022-11-29T04:01:49.580Z,982.07
2022-11-29T04:02:49.570Z,982.09
2022-11-29T04:03:49.514Z,982.15
2022-11-29T04:04:49.504Z,982.16
2022-11-29T04:05:49.495Z,982.12
2022-11-29T04:06:49.477Z,982.11
2022-11-29T04:07:49.553Z,982.18
2022-11-29T04:08:49.460Z,982.15
2022-11-29T04:09:49.456Z,982.11
2022-11-29T04:10:49.436Z,982.11
2022-11-29T04:11:49.437Z,982.11
2022-11-29T04:12:49.438Z,982.12
2022-11-29T04:13:49.407Z,982.14
2022-11-29T04:14:49.403Z,982.14
2022-11-29T04:15:49.415Z,982.18
2022-11-29T04:16:49.399Z,982.16
2022-11-29T04:17:49.367Z,982.12
2022-11-29T04:18:49.357Z,982.17
2022-11-29T04:19:49.344Z,982.19
2022-11-29T04:20:49.339Z,982.19
2022-11-29T04:21:49.336Z,982.20
2022-11-29T04:22:49.316Z,982.13
2022-11-29T04:23:49.299Z,982.18
2022-11-29T04:24:49.316Z,982.25
2022-11-29T04:25:49.289Z,982.19
2022-11-29T04:26:49.278Z,982.19
2022-11-29T04:27:49.260Z,982.25
2022-11-29T04:28:49.267Z,982.26
2022-11-29T04:29:49.228Z,982.28
2022-11-29T04:30:49.259Z,982.25
2022-11-29T04:31:49.210Z,982.28
2022-11-29T04:32:49.220Z,982.24
2022-11-29T04:33:49.191Z,982.30
2022-11-29T04:34:49.187Z,982.28
2022-11-29T04:35:49.197Z,982.26
2022-11-29T04:36:49.167Z,982.31
2022-11-29T04:37:49.158Z,982.31
2022-11-29T04:38:49.149Z,982.38
2022-11-29T04:39:49.130Z,982.26
2022-11-29T04:40:49.139Z,982.38
2022-11-29T04:41:49.109Z,982.36
2022-11-29T04:42:49.099Z,982.34
2022-11-29T04:43:49.081Z,982.36
2022-11-29T04:44:49.080Z,982.32
2022-11-29T04:45:49.081Z,982.31
2022-11-29T04:46:49.083Z,982.33
2022-11-29T04:47:49.058Z,982.37
2022-11-29T04:48:49.038Z,982.33
2022-11-29T04:49:49.031Z,982.38
2022-11-29T04:50:49.021Z,982.37
2022-11-29T04:51:49.011Z,982.32
2022-11-29T04:52:48.990Z,982.37
2022-11-29T04:53:49.001Z,982.38
2022-11-29T04:54:48.969Z,982.39
2022-11-29T04:55:48.960Z,982.39
2022-11-29T04:56:48.962Z,982.36
2022-11-29T04:57:48.950Z,982.46
2022-11-29T04:58:48.942Z,982.43
2022-11-29T04:59:48.922Z,982.40
2022-11-29T05:00:48.920Z,982.41
2022-11-29T05:01:49.052Z,982.41
2022-11-29T05:02:48.923Z,982.44
2022-11-29T05:03:53.846Z,982.42
2022-11-29T05:04:49.873Z,982.45
2022-11-29T05:05:48.853Z,982.45
2022-11-29T05:06:48.870Z,982.49
2022-11-29T05:07:48.955Z,982.49
2022-11-29T05:08:48.821Z,982.49
2022-11-29T05:09:48.824Z,982.49
2022-11-29T05:10:48.794Z,982.49
2022-11-29T05:11:48.795Z,982.50
2022-11-29T05:12:49.024Z,982.52
2022-11-29T05:13:48.773Z,982.49
2022-11-29T05:14:48.756Z,982.48
2022-11-29T05:15:48.778Z,982.48
2022-11-29T05:16:48.738Z,982.52
2022-11-29T05:17:48.742Z,982.55
2022-11-29T05:18:48.711Z,982.47
2022-11-29T05:19:48.709Z,982.51
2022-11-29T05:20:48.704Z,982.56
2022-11-29T05:21:48.685Z,982.53
2022-11-29T05:22:48.673Z,982.55
2022-11-29T05:23:48.665Z,982.57
2022-11-29T05:24:48.663Z,982.56
2022-11-29T05:25:48.644Z,982.57
2022-11-29T05:26:48.627Z,982.58
2022-11-29T05:27:48.628Z,982.63
2022-11-29T05:28:48.604Z,982.59
2022-11-29T05:29:48.598Z,982.63
2022-11-29T05:30:49.010Z,982.60
2022-11-29T05:31:48.576Z,982.62
2022-11-29T05:32:48.567Z,982.60
2022-11-29T05:33:48.557Z,982.69
2022-11-29T05:34:49.432Z,982.69
2022-11-29T05:35:49.218Z,982.68
2022-11-29T05:36:48.537Z,982.57
2022-11-29T05:37:48.508Z,982.58
2022-11-29T05:38:48.548Z,982.64
2022-11-29T05:39:48.515Z,982.68
2022-11-29T05:40:48.487Z,982.60
2022-11-29T05:41:48.467Z,982.62
2022-11-29T05:42:48.456Z,982.66
2022-11-29T05:43:49.388Z,982.64
2022-11-29T05:44:48.438Z,982.65
2022-11-29T05:45:48.479Z,982.73
2022-11-29T05:46:48.494Z,982.73
2022-11-29T05:47:48.517Z,982.68
2022-11-29T05:48:48.391Z,982.76
2022-11-29T05:49:48.391Z,982.76
2022-11-29T05:50:48.416Z,982.78
2022-11-29T05:51:48.365Z,982.75
2022-11-29T05:52:48.368Z,982.76
2022-11-29T05:53:48.347Z,982.78
2022-11-29T05:54:48.326Z,982.76
2022-11-29T05:55:48.319Z,982.77
2022-11-29T05:56:48.308Z,982.81
2022-11-29T05:57:48.321Z,982.82
2022-11-29T05:58:48.279Z,982.84
2022-11-29T05:59:48.341Z,982.76
2022-11-29T06:00:48.270Z,982.86
2022-11-29T06:01:48.332Z,982.75
2022-11-29T06:02:48.267Z,982.82
2022-11-29T06:03:48.250Z,982.83
2022-11-29T06:04:48.240Z,982.83
2022-11-29T06:05:48.218Z,982.83
2022-11-29T06:06:48.211Z,982.80
2022-11-29T06:07:48.238Z,982.84
2022-11-29T06:08:48.182Z,982.82
2022-11-29T06:09:48.184Z,982.82
2022-11-29T06:10:48.151Z,982.82
2022-11-29T06:11:48.151Z,982.82
2022-11-29T06:12:48.139Z,982.80
2022-11-29T06:13:48.143Z,982.88
2022-11-29T06:14:48.112Z,982.83
2022-11-29T06:15:48.149Z,982.93
2022-11-29T06:16:48.091Z,982.95
2022-11-29T06:17:48.089Z,982.87
2022-11-29T06:18:48.103Z,982.93
2022-11-29T06:19:48.070Z,982.89
2022-11-29T06:20:48.054Z,982.96
2022-11-29T06:21:48.044Z,982.96
2022-11-29T06:22:48.024Z,983.00
2022-11-29T06:23:48.023Z,983.02
2022-11-29T06:24:48.080Z,983.01
2022-11-29T06:25:48.002Z,983.01
2022-11-29T06:26:48.004Z,983.04
2022-11-29T06:27:47.982Z,983.06
2022-11-29T06:28:47.965Z,983.12
2022-11-29T06:29:47.973Z,983.08
2022-11-29T06:30:47.963Z,983.08
2022-11-29T06:31:48.019Z,983.11
2022-11-29T06:32:47.927Z,983.12
2022-11-29T06:33:47.914Z,983.10
2022-11-29T06:34:48.331Z,983.13
2022-11-29T06:35:47.934Z,983.10
2022-11-29T06:36:47.874Z,983.11
2022-11-29T06:37:47.884Z,983.13
2022-11-29T06:38:47.855Z,983.16
2022-11-29T06:39:47.858Z,983.18
2022-11-29T06:40:47.836Z,983.14
2022-11-29T06:41:47.833Z,983.13
2022-11-29T06:42:47.844Z,983.16
2022-11-29T06:43:47.810Z,983.13
2022-11-29T06:44:47.878Z,983.15
2022-11-29T06:45:47.786Z,983.17
2022-11-29T06:46:47.844Z,983.14
2022-11-29T06:47:47.787Z,983.18
2022-11-29T06:48:47.748Z,983.18
2022-11-29T06:49:47.745Z,983.13
2022-11-29T06:50:47.727Z,983.13
2022-11-29T06:51:47.726Z,983.17
2022-11-29T06:52:47.755Z,983.17
2022-11-29T06:53:47.698Z,983.23
2022-11-29T06:54:48.046Z,983.20
2022-11-29T06:55:47.680Z,983.17
2022-11-29T06:56:47.667Z,983.19
2022-11-29T06:57:47.696Z,983.27
2022-11-29T06:58:47.654Z,983.25
2022-11-29T06:59:47.652Z,983.26
2022-11-29T07:00:47.684Z,983.24
2022-11-29T07:01:47.666Z,983.25
2022-11-29T07:02:47.598Z,983.28
2022-11-29T07:03:47.598Z,983.30
2022-11-29T07:04:48.276Z,983.31
2022-11-29T07:05:47.578Z,983.31
2022-11-29T07:06:47.558Z,983.27
2022-11-29T07:07:47.677Z,983.35
2022-11-29T07:08:47.645Z,983.38
2022-11-29T07:09:47.549Z,983.33
2022-11-29T07:10:47.519Z,983.37
2022-11-29T07:11:47.508Z,983.43
2022-11-29T07:12:47.512Z,983.36
2022-11-29T07:13:47.488Z,983.43
2022-11-29T07:14:47.767Z,983.44
2022-11-29T07:15:47.576Z,983.40
2022-11-29T07:16:47.449Z,983.44
2022-11-29T07:17:47.441Z,983.43
2022-11-29T07:18:47.431Z,983.41
2022-11-29T07:19:47.437Z,983.44
2022-11-29T07:20:47.408Z,983.39
2022-11-29T07:21:47.400Z,983.46
2022-11-29T07:22:47.382Z,983.48
2022-11-29T07:23:47.393Z,983.44
2022-11-29T07:24:47.761Z,983.52
2022-11-29T07:25:47.452Z,983.49
2022-11-29T07:26:48.371Z,983.53
2022-11-29T07:27:47.351Z,983.52
2022-11-29T07:28:48.054Z,983.54
2022-11-29T07:29:47.331Z,983.54
2022-11-29T07:30:47.801Z,983.55
2022-11-29T07:31:47.329Z,983.62
2022-11-29T07:32:51.352Z,983.57
2022-11-29T07:33:47.291Z,983.61
2022-11-29T07:34:48.410Z,983.62
2022-11-29T07:35:47.263Z,983.61
2022-11-29T07:36:48.414Z,983.59
2022-11-29T07:37:47.256Z,983.54
2022-11-29T07:38:47.556Z,983.62
2022-11-29T07:39:47.222Z,983.57
2022-11-29T07:40:47.202Z,983.62
2022-11-29T07:41:47.193Z,983.58
2022-11-29T07:42:47.174Z,983.61
2022-11-29T07:43:47.203Z,983.58
2022-11-29T07:44:47.493Z,983.57
2022-11-29T07:45:47.143Z,983.56
2022-11-29T07:46:47.218Z,983.62
2022-11-29T07:47:47.133Z,983.57
2022-11-29T07:48:47.113Z,983.61
2022-11-29T07:49:47.114Z,983.63
2022-11-29T07:50:47.098Z,983.66
2022-11-29T07:51:47.093Z,983.66
2022-11-29T07:52:47.074Z,983.65
2022-11-29T07:53:47.055Z,983.68
2022-11-29T07:54:47.265Z,983.65
2022-11-29T07:55:47.034Z,983.70
2022-11-29T07:56:47.048Z,983.72
2022-11-29T07:57:47.014Z,983.68
2022-11-29T07:58:47.095Z,983.75
2022-11-29T07:59:47.263Z,983.75
2022-11-29T08:00:47.013Z,983.73
2022-11-29T08:01:47.056Z,983.75
2022-11-29T08:02:46.967Z,983.76
2022-11-29T08:03:46.966Z,983.70
2022-11-29T08:04:47.295Z,983.75
2022-11-29T08:05:46.935Z,983.71
2022-11-29T08:06:46.926Z,983.74
2022-11-29T08:07:47.015Z,983.74
2022-11-29T08:08:46.900Z,983.73
2022-11-29T08:09:47.295Z,983.73
2022-11-29T08:10:46.877Z,983.74
2022-11-29T08:11:46.866Z,983.76
2022-11-29T08:12:46.859Z,983.75
2022-11-29T08:13:46.847Z,983.74
2022-11-29T08:14:46.954Z,983.73
2022-11-29T08:15:46.828Z,983.80
2022-11-29T08:16:46.856Z,983.81
2022-11-29T08:17:46.800Z,983.78
2022-11-29T08:18:46.795Z,983.84
2022-11-29T08:19:46.793Z,983.79
2022-11-29T08:20:46.789Z,983.84
2022-11-29T08:21:46.774Z,983.83
2022-11-29T08:22:46.759Z,983.82
2022-11-29T08:23:46.758Z,983.84
2022-11-29T08:24:47.119Z,983.86
2022-11-29T08:25:46.716Z,983.89
2022-11-29T08:26:46.719Z,983.87
2022-11-29T08:27:46.697Z,983.90
2022-11-29T08:28:46.699Z,983.89
2022-11-29T08:29:46.678Z,983.91
2022-11-29T08:30:46.680Z,983.90
2022-11-29T08:31:46.771Z,983.87
2022-11-29T08:32:51.259Z,983.92
2022-11-29T08:33:47.629Z,983.88
2022-11-29T08:34:47.031Z,983.88
2022-11-29T08:35:46.608Z,983.90
2022-11-29T08:36:46.603Z,983.87
2022-11-29T08:37:46.590Z,983.95
2022-11-29T08:38:46.591Z,983.91
2022-11-29T08:39:46.573Z,983.94
2022-11-29T08:40:46.565Z,983.94
2022-11-29T08:41:46.549Z,983.92
2022-11-29T08:42:46.540Z,983.96
2022-11-29T08:43:46.529Z,983.93
2022-11-29T08:44:46.759Z,984.00
2022-11-29T08:45:46.546Z,983.96
2022-11-29T08:46:46.511Z,984.02
2022-11-29T08:47:46.479Z,983.99
2022-11-29T08:48:46.472Z,984.03
2022-11-29T08:49:46.480Z,983.99
2022-11-29T08:50:46.463Z,983.96
2022-11-29T08:51:46.439Z,984.02
2022-11-29T08:52:46.438Z,984.01
2022-11-29T08:53:46.432Z,984.06
2022-11-29T08:54:46.764Z,984.06
2022-11-29T08:55:46.393Z,984.01
2022-11-29T08:57:47.378Z,984.03
2022-11-29T08:58:46.373Z,984.00
2022-11-29T08:59:46.343Z,984.02
2022-11-29T09:00:46.362Z,983.97
2022-11-29T09:01:46.376Z,984.05
2022-11-29T09:02:46.327Z,984.02
2022-11-29T09:03:46.331Z,984.06
2022-11-29T09:04:46.579Z,984.10
2022-11-29T09:05:46.284Z,984.11
2022-11-29T09:06:46.283Z,984.12
2022-11-29T09:07:46.296Z,984.09
2022-11-29T09:08:46.255Z,984.19
2022-11-29T09:09:46.245Z,984.16
2022-11-29T09:10:46.497Z,984.18
2022-11-29T09:11:49.356Z,984.20
2022-11-29T09:12:46.215Z,984.22
2022-11-29T09:13:46.205Z,984.22
2022-11-29T09:14:46.430Z,984.25
2022-11-29T09:15:46.184Z,984.25
2022-11-29T09:16:46.292Z,984.25
2022-11-29T09:17:46.164Z,984.27
2022-11-29T09:18:51.345Z,984.29
2022-11-29T09:19:47.144Z,984.26
2022-11-29T09:20:46.127Z,984.27
2022-11-29T09:21:46.136Z,984.29
2022-11-29T09:22:46.116Z,984.28
2022-11-29T09:23:46.100Z,984.34
2022-11-29T09:24:46.472Z,984.28
2022-11-29T09:25:46.097Z,984.24
2022-11-29T09:26:46.076Z,984.30
2022-11-29T09:27:46.056Z,984.32
2022-11-29T09:28:46.046Z,984.31
2022-11-29T09:29:46.048Z,984.30
2022-11-29T09:30:46.029Z,984.33
2022-11-29T09:31:46.050Z,984.28
2022-11-29T09:32:46.007Z,984.33
2022-11-29T09:33:46.000Z,984.35
2022-11-29T09:34:46.288Z,984.36
2022-11-29T09:35:45.981Z,984.34
2022-11-29T09:36:45.967Z,984.38
2022-11-29T09:37:45.949Z,984.41
2022-11-29T09:38:45.947Z,984.40
2022-11-29T09:39:45.951Z,984.40
2022-11-29T09:40:45.920Z,984.41
2022-11-29T09:41:48.554Z,984.44
2022-11-29T09:42:45.980Z,984.36
2022-11-29T09:43:45.899Z,984.44
2022-11-29T09:44:46.284Z,984.45
2022-11-29T09:45:45.897Z,984.48
2022-11-29T09:46:45.862Z,984.45
2022-11-29T09:47:45.841Z,984.46
2022-11-29T09:48:45.848Z,984.48
2022-11-29T09:49:45.823Z,984.44
2022-11-29T09:50:45.810Z,984.46
2022-11-29T09:51:45.810Z,984.50
2022-11-29T09:52:45.790Z,984.48
2022-11-29T09:53:45.831Z,984.50
2022-11-29T09:54:46.118Z,984.50
2022-11-29T09:55:45.750Z,984.49
2022-11-29T09:56:45.751Z,984.42
2022-11-29T09:57:45.731Z,984.43
2022-11-29T09:58:45.740Z,984.45
2022-11-29T09:59:45.711Z,984.48
2022-11-29T10:00:45.730Z,984.47
2022-11-29T10:01:45.691Z,984.47
2022-11-29T10:02:45.745Z,984.46
2022-11-29T10:03:45.670Z,984.50
2022-11-29T10:04:45.880Z,984.47
2022-11-29T10:05:45.650Z,984.45
2022-11-29T10:06:45.644Z,984.58
2022-11-29T10:07:45.653Z,984.50
2022-11-29T10:08:45.621Z,984.58
2022-11-29T10:09:45.612Z,984.58
2022-11-29T10:10:45.603Z,984.61
2022-11-29T10:11:45.584Z,984.60
2022-11-29T10:12:45.592Z,984.58
2022-11-29T10:13:45.559Z,984.66
2022-11-29T10:14:45.944Z,984.64
2022-11-29T10:15:45.541Z,984.62
2022-11-29T10:16:45.624Z,984.62
2022-11-29T10:17:45.554Z,984.60
2022-11-29T10:18:45.513Z,984.63
2022-11-29T10:19:45.494Z,984.60
2022-11-29T10:20:48.917Z,984.62
2022-11-29T10:21:45.475Z,984.57
2022-11-29T10:22:45.493Z,984.66
2022-11-29T10:23:45.454Z,984.58
2022-11-29T10:24:45.819Z,984.60
2022-11-29T10:25:45.433Z,984.57
2022-11-29T10:26:45.434Z,984.51
2022-11-29T10:27:45.413Z,984.57
2022-11-29T10:28:45.414Z,984.59
2022-11-29T10:29:45.386Z,984.53
2022-11-29T10:30:45.424Z,984.49
2022-11-29T10:31:45.385Z,984.52
2022-11-29T10:32:45.364Z,984.52
2022-11-29T10:33:45.357Z,984.51
2022-11-29T10:34:45.618Z,984.49
2022-11-29T10:35:45.330Z,984.54
2022-11-29T10:36:45.325Z,984.52
2022-11-29T10:38:01.401Z,984.49
2022-11-29T10:38:46.296Z,984.49
2022-11-29T10:39:45.303Z,984.51
2022-11-29T10:40:45.277Z,984.49
2022-11-29T10:41:45.276Z,984.54
2022-11-29T10:42:45.256Z,984.54
2022-11-29T10:43:46.817Z,984.47
2022-11-29T10:44:45.545Z,984.54
2022-11-29T10:45:46.543Z,984.48
2022-11-29T10:46:45.227Z,984.46
2022-11-29T10:47:46.237Z,984.48
2022-11-29T10:48:45.205Z,984.51
2022-11-29T10:49:45.287Z,984.49
2022-11-29T10:50:45.167Z,984.53
2022-11-29T10:51:45.928Z,984.49
2022-11-29T10:52:45.178Z,984.50
2022-11-29T10:53:46.136Z,984.49
2022-11-29T10:54:45.505Z,984.48
2022-11-29T10:55:45.885Z,984.53
2022-11-29T10:56:45.128Z,984.50
2022-11-29T10:57:45.140Z,984.50
2022-11-29T10:58:45.148Z,984.49
2022-11-29T10:59:45.598Z,984.52
2022-11-29T11:00:45.080Z,984.49
2022-11-29T11:01:45.147Z,984.55
2022-11-29T11:02:45.051Z,984.57
2022-11-29T11:03:51.448Z,984.53
2022-11-29T11:04:46.428Z,984.55
2022-11-29T11:05:45.799Z,984.56
2022-11-29T11:06:45.031Z,984.54
2022-11-29T11:07:45.736Z,984.55
2022-11-29T11:08:45.040Z,984.54
2022-11-29T11:09:45.690Z,984.56
2022-11-29T11:10:48.200Z,984.61
2022-11-29T11:11:46.250Z,984.54
2022-11-29T11:12:44.951Z,984.59
2022-11-29T11:13:45.610Z,984.56
2022-11-29T11:14:45.429Z,984.52
2022-11-29T11:15:45.630Z,984.51
2022-11-29T11:16:44.947Z,984.55
2022-11-29T11:17:45.611Z,984.51
2022-11-29T11:18:44.965Z,984.59
2022-11-29T11:19:45.583Z,984.59
2022-11-29T11:20:44.903Z,984.58
2022-11-29T11:21:44.883Z,984.53
2022-11-29T11:22:44.928Z,984.56
2022-11-29T11:23:44.841Z,984.57
2022-11-29T11:24:45.158Z,984.56
2022-11-29T11:25:45.523Z,984.57
2022-11-29T11:26:44.792Z,984.56
2022-11-29T11:27:44.780Z,984.58
2022-11-29T11:28:44.793Z,984.59
2022-11-29T11:29:45.486Z,984.46
2022-11-29T11:30:44.820Z,984.51
2022-11-29T11:31:45.442Z,984.54
2022-11-29T11:32:44.723Z,984.53
2022-11-29T11:33:45.414Z,984.57
2022-11-29T11:34:45.037Z,984.54
2022-11-29T11:35:44.716Z,984.63
2022-11-29T11:36:44.704Z,984.56
2022-11-29T11:37:44.664Z,984.59
2022-11-29T11:38:44.666Z,984.54
2022-11-29T11:39:44.677Z,984.59
2022-11-29T11:40:44.645Z,984.55
2022-11-29T11:41:44.644Z,984.65
2022-11-29T11:42:44.614Z,984.61
2022-11-29T11:43:44.606Z,984.58
2022-11-29T11:44:58.423Z,984.63
2022-11-29T11:45:45.624Z,984.62
2022-11-29T11:46:44.608Z,984.60
2022-11-29T11:47:44.581Z,984.60
2022-11-29T11:48:44.556Z,984.60
2022-11-29T11:49:44.590Z,984.67
2022-11-29T11:50:44.535Z,984.67
2022-11-29T11:51:44.520Z,984.75
2022-11-29T11:52:50.057Z,984.72
2022-11-29T11:53:45.507Z,984.71
2022-11-29T11:54:44.830Z,984.74
2022-11-29T11:55:44.495Z,984.75
2022-11-29T11:56:44.468Z,984.67
2022-11-29T11:57:44.454Z,984.73
2022-11-29T11:58:44.499Z,984.72
2022-11-29T11:59:44.456Z,984.67
2022-11-29T12:01:03.461Z,984.71
2022-11-29T12:01:45.429Z,984.76
2022-11-29T12:02:45.723Z,984.75
2022-11-29T12:03:44.413Z,984.71
2022-11-29T12:04:45.426Z,984.73
2022-11-29T12:05:46.311Z,984.72
2022-11-29T12:06:45.059Z,984.70
2022-11-29T12:08:07.749Z,984.81
2022-11-29T12:08:46.462Z,984.81
2022-11-29T12:09:44.349Z,984.86
2022-11-29T12:10:44.641Z,984.83
2022-11-29T12:11:44.319Z,984.79
2022-11-29T12:12:44.975Z,984.83
2022-11-29T12:13:44.309Z,984.87
2022-11-29T12:14:44.970Z,984.82
2022-11-29T12:15:44.313Z,984.80
2022-11-29T12:16:44.411Z,984.82
2022-11-29T12:17:44.251Z,984.86
2022-11-29T12:18:44.979Z,984.87
2022-11-29T12:19:44.241Z,984.87
2022-11-29T12:20:44.250Z,984.93
2022-11-29T12:21:44.230Z,984.88
2022-11-29T12:22:48.242Z,984.90
2022-11-29T12:23:44.189Z,984.93
2022-11-29T12:24:44.501Z,984.85
2022-11-29T12:25:44.216Z,984.88
2022-11-29T12:26:59.651Z,984.91
2022-11-29T12:27:45.148Z,984.91
2022-11-29T12:28:44.121Z,984.92
2022-11-29T12:29:44.123Z,984.97